Baie Comeau — CFN6357 — position and weather

sailwx.info

Track history (hours):
 
Tides and Currents Weather Stations Pressure Air Temp Water Temp Dewpoint Dewpoint Depression Visibility Wind Speed Wind Dir Waves Ship Positions

Baie Comeau

Last reported at 2017-Dec-25 06:32 UTC. Time now 2018-Feb-21 09:46 UTC.
Position N 45°10' W 074°20'.
Warning: this ship's position is 58 days out of date.

Length 225 m; draft 8 m.

Type: Cargo ship. MMSI: 316023808.

Date/timePositionNaut miles runAvg speedWind from/ knotsBaromVisibWave heightAir tempDewpointWater temp
2017-Dec-25 06:32N 45°10' W 074°20'010.1
2017-Dec-25 06:30N 45°11' W 074°20'510.0
2017-Dec-25 06:00N 45°14' W 074°14'5 9.1
2017-Dec-25 05:30N 45°14' W 074°07'3 6.8
2017-Dec-25 05:00N 45°13' W 074°03'4 8.6
2017-Dec-25 04:30N 45°16' W 073°58'3 5.2
2017-Dec-25 03:57N 45°18' W 073°56'0 0.2
2017-Dec-25 03:27N 45°18' W 073°56'1 1.4
2017-Dec-25 02:57N 45°19' W 073°55'0 0.2
2017-Dec-25 02:27N 45°19' W 073°55'0 0.7
2017-Dec-25 01:57N 45°19' W 073°55'1 1.4
2017-Dec-25 01:30N 45°20' W 073°54'3 6.9
2017-Dec-25 01:00N 45°22' W 073°50'4 8.8
2017-Dec-25 00:30N 45°24' W 073°45'3 6.1
2017-Dec-25 00:00N 45°25' W 073°41'3 5.9
2017-Dec-24 23:30N 45°24' W 073°37'2 3.6
2017-Dec-24 22:58N 45°24' W 073°34'0 0.0
2017-Dec-24 22:28N 45°24' W 073°34'0 0.1
2017-Dec-24 21:58N 45°24' W 073°34'0 0.5
2017-Dec-24 21:28N 45°24' W 073°33'1 3.2
2017-Dec-24 21:00N 45°25' W 073°31'3 5.9
2017-Dec-24 20:30N 45°27' W 073°30'  
2017-Dec-17 14:07N 45°30' W 073°31'0 0.7
2017-Dec-17 13:53N 45°29' W 073°31'2 1.3
2017-Dec-17 12:12N 45°27' W 073°30'1 6.3
2017-Dec-17 11:59N 45°26' W 073°30'3 5.4
2017-Dec-17 11:31N 45°24' W 073°33'1 1.4
2017-Dec-17 11:01N 45°24' W 073°34'0 0.5
2017-Dec-17 10:31N 45°24' W 073°34'0 0.0
2017-Dec-17 10:01N 45°24' W 073°34'0 0.0
2017-Dec-17 09:31N 45°24' W 073°34'0 0.1
2017-Dec-17 09:01N 45°24' W 073°34'0 0.6
2017-Dec-17 08:31N 45°24' W 073°35'0 0.7
2017-Dec-17 08:00N 45°24' W 073°35'1 2.7
2017-Dec-17 07:30N 45°24' W 073°37'2 4.5
2017-Dec-17 07:00N 45°25' W 073°40'2 4.6
2017-Dec-17 06:30N 45°24' W 073°43'4 7.7
2017-Dec-17 06:00N 45°23' W 073°49'4 8.0
2017-Dec-17 05:30N 45°21' W 073°53'2 3.6
2017-Dec-17 05:01N 45°19' W 073°55'0 0.0
2017-Dec-17 04:31N 45°19' W 073°55'0 0.0
2017-Dec-17 04:01N 45°19' W 073°55'0 0.0
2017-Dec-17 03:31N 45°19' W 073°55'0 0.1
2017-Dec-17 03:01N 45°19' W 073°55'0 0.4
2017-Dec-17 02:30N 45°19' W 073°55'0 0.3
2017-Dec-17 02:01N 45°19' W 073°55'0 0.9
2017-Dec-17 01:31N 45°19' W 073°55'0 0.8
2017-Dec-17 01:00N 45°18' W 073°56'0 0.4
2017-Dec-17 00:31N 45°18' W 073°56'1 2.2
2017-Dec-17 00:00N 45°17' W 073°56'4 8.6
2017-Dec-16 23:30N 45°14' W 074°01'  
Track history (hours):
 
Tides and Currents Weather Stations Pressure Air Temp Water Temp Dewpoint Dewpoint Depression Visibility Wind Speed Wind Dir Waves Ship Positions

Baie Comeau

Last reported at 2017-Dec-25 06:32 UTC. Time now 2018-Feb-21 09:46 UTC.
Position N 45°10' W 074°20'.
Warning: this ship's position is 58 days out of date.

Length 225 m; draft 8 m.

Type: Cargo ship. MMSI: 316023808.

Date/timePositionNaut miles runAvg speedWind from/ knotsBaromVisibWave heightAir tempDewpointWater temp
2017-Dec-25 06:32N 45°10' W 074°20'010.1
2017-Dec-25 06:30N 45°11' W 074°20'510.0
2017-Dec-25 06:00N 45°14' W 074°14'5 9.1
2017-Dec-25 05:30N 45°14' W 074°07'3 6.8
2017-Dec-25 05:00N 45°13' W 074°03'4 8.6
2017-Dec-25 04:30N 45°16' W 073°58'3 5.2
2017-Dec-25 03:57N 45°18' W 073°56'0 0.2
2017-Dec-25 03:27N 45°18' W 073°56'1 1.4
2017-Dec-25 02:57N 45°19' W 073°55'0 0.2
2017-Dec-25 02:27N 45°19' W 073°55'0 0.7
2017-Dec-25 01:57N 45°19' W 073°55'1 1.4
2017-Dec-25 01:30N 45°20' W 073°54'3 6.9
2017-Dec-25 01:00N 45°22' W 073°50'4 8.8
2017-Dec-25 00:30N 45°24' W 073°45'3 6.1
2017-Dec-25 00:00N 45°25' W 073°41'3 5.9
2017-Dec-24 23:30N 45°24' W 073°37'2 3.6
2017-Dec-24 22:58N 45°24' W 073°34'0 0.0
2017-Dec-24 22:28N 45°24' W 073°34'0 0.1
2017-Dec-24 21:58N 45°24' W 073°34'0 0.5
2017-Dec-24 21:28N 45°24' W 073°33'1 3.2
2017-Dec-24 21:00N 45°25' W 073°31'3 5.9
2017-Dec-24 20:30N 45°27' W 073°30'  
2017-Dec-17 14:07N 45°30' W 073°31'0 0.7
2017-Dec-17 13:53N 45°29' W 073°31'2 1.3
2017-Dec-17 12:12N 45°27' W 073°30'1 6.3
2017-Dec-17 11:59N 45°26' W 073°30'3 5.4
2017-Dec-17 11:31N 45°24' W 073°33'1 1.4
2017-Dec-17 11:01N 45°24' W 073°34'0 0.5
2017-Dec-17 10:31N 45°24' W 073°34'0 0.0
2017-Dec-17 10:01N 45°24' W 073°34'0 0.0
2017-Dec-17 09:31N 45°24' W 073°34'0 0.1
2017-Dec-17 09:01N 45°24' W 073°34'0 0.6
2017-Dec-17 08:31N 45°24' W 073°35'0 0.7
2017-Dec-17 08:00N 45°24' W 073°35'1 2.7
2017-Dec-17 07:30N 45°24' W 073°37'2 4.5
2017-Dec-17 07:00N 45°25' W 073°40'2 4.6
2017-Dec-17 06:30N 45°24' W 073°43'4 7.7
2017-Dec-17 06:00N 45°23' W 073°49'4 8.0
2017-Dec-17 05:30N 45°21' W 073°53'2 3.6
2017-Dec-17 05:01N 45°19' W 073°55'0 0.0
2017-Dec-17 04:31N 45°19' W 073°55'0 0.0
2017-Dec-17 04:01N 45°19' W 073°55'0 0.0
2017-Dec-17 03:31N 45°19' W 073°55'0 0.1
2017-Dec-17 03:01N 45°19' W 073°55'0 0.4
2017-Dec-17 02:30N 45°19' W 073°55'0 0.3
2017-Dec-17 02:01N 45°19' W 073°55'0 0.9
2017-Dec-17 01:31N 45°19' W 073°55'0 0.8
2017-Dec-17 01:00N 45°18' W 073°56'0 0.4
2017-Dec-17 00:31N 45°18' W 073°56'1 2.2
2017-Dec-17 00:00N 45°17' W 073°56'4 8.6
2017-Dec-16 23:30N 45°14' W 074°01'  

Dump ship's entire track history